createdAt,value
2022-10-28T00:00:03.397Z,14.09
2022-10-28T00:05:08.082Z,14.08
2022-10-28T00:10:11.883Z,14.09
2022-10-28T00:15:16.565Z,14.09
2022-10-28T00:20:20.652Z,14.09
2022-10-28T00:25:24.872Z,14.08
2022-10-28T00:30:28.881Z,14.07
2022-10-28T00:35:33.587Z,14.08
2022-10-28T00:40:37.561Z,14.08
2022-10-28T00:45:41.810Z,14.07
2022-10-28T00:50:48.057Z,14.08
2022-10-28T00:55:52.600Z,14.08
2022-10-28T01:00:57.264Z,14.07
2022-10-28T01:06:01.913Z,14.06
2022-10-28T01:11:19.840Z,14.06
2022-10-28T01:16:30.417Z,14.08
2022-10-28T01:21:44.046Z,14.07
2022-10-28T01:27:05.817Z,14.07
2022-10-28T01:32:14.137Z,14.08
2022-10-28T01:37:22.486Z,14.07
2022-10-28T01:42:28.387Z,14.07
2022-10-28T01:47:35.338Z,14.06
2022-10-28T01:52:40.867Z,14.06
2022-10-28T01:57:45.687Z,14.06
2022-10-28T02:02:50.773Z,14.06
2022-10-28T02:07:59.838Z,14.06
2022-10-28T02:13:06.466Z,14.05
2022-10-28T02:18:27.587Z,14.06
2022-10-28T02:23:38.487Z,14.06
2022-10-28T02:28:47.488Z,14.06
2022-10-28T02:33:53.688Z,14.06
2022-10-28T02:38:59.175Z,14.05
2022-10-28T02:44:05.507Z,14.04
2022-10-28T02:49:11.577Z,14.05
2022-10-28T02:54:17.188Z,14.05
2022-10-28T02:59:21.367Z,14.04
2022-10-28T03:04:25.597Z,14.04
2022-10-28T03:09:30.036Z,14.04
2022-10-28T03:14:34.167Z,14.03
2022-10-28T03:19:38.600Z,14.03
2022-10-28T03:24:42.666Z,14.03
2022-10-28T03:29:46.831Z,14.03
2022-10-28T03:34:51.096Z,14.02
2022-10-28T03:39:55.636Z,14.01
2022-10-28T03:45:00.184Z,14.02
2022-10-28T03:50:04.817Z,14.02
2022-10-28T03:55:09.297Z,14.02
2022-10-28T04:00:14.548Z,14.02
2022-10-28T04:05:18.637Z,14.01
2022-10-28T04:10:22.777Z,14.01
2022-10-28T04:15:26.816Z,14.00
2022-10-28T04:20:31.228Z,14.00
2022-10-28T04:25:35.557Z,14.00
2022-10-28T04:30:39.891Z,13.99
2022-10-28T04:35:44.124Z,13.98
2022-10-28T04:40:49.377Z,13.99
2022-10-28T04:45:54.062Z,13.99
2022-10-28T04:50:58.812Z,13.98
2022-10-28T04:56:03.166Z,13.98
2022-10-28T05:01:08.394Z,13.97
2022-10-28T05:06:12.587Z,13.97
2022-10-28T05:11:16.718Z,13.97
2022-10-28T05:16:20.856Z,13.96
2022-10-28T05:21:25.107Z,13.95
2022-10-28T05:26:29.330Z,13.95
2022-10-28T05:31:33.538Z,13.94
2022-10-28T05:36:38.391Z,13.95
2022-10-28T05:41:42.441Z,13.95
2022-10-28T05:46:46.269Z,13.96
2022-10-28T05:51:50.580Z,13.96
2022-10-28T05:56:54.713Z,13.96
2022-10-28T06:01:59.179Z,13.95
2022-10-28T06:07:03.795Z,13.96
2022-10-28T06:12:07.402Z,13.97
2022-10-28T06:17:11.404Z,13.98
2022-10-28T06:22:15.860Z,13.99
2022-10-28T06:27:19.814Z,13.98
2022-10-28T06:32:24.229Z,13.99
2022-10-28T06:37:28.877Z,13.99
2022-10-28T06:42:33.113Z,14.01
2022-10-28T06:47:41.509Z,14.01
2022-10-28T06:57:55.693Z,14.02
2022-10-28T07:03:00.746Z,14.02
2022-10-28T07:08:05.322Z,14.03
2022-10-28T07:13:09.578Z,14.04
2022-10-28T07:18:14.041Z,14.07
2022-10-28T07:23:18.724Z,14.09
2022-10-28T07:28:23.440Z,14.10
2022-10-28T07:33:27.754Z,14.10
2022-10-28T07:38:31.862Z,14.10
2022-10-28T07:43:37.661Z,14.11
2022-10-28T07:48:41.763Z,14.10
2022-10-28T07:53:45.820Z,14.11
2022-10-28T07:58:50.027Z,14.11
2022-10-28T08:03:54.540Z,14.11
2022-10-28T08:08:59.116Z,14.11
2022-10-28T08:14:03.672Z,14.11
2022-10-28T08:19:07.998Z,14.10
2022-10-28T08:24:11.999Z,14.12
2022-10-28T08:29:16.296Z,14.16
2022-10-28T08:39:30.185Z,14.25
2022-10-28T08:44:49.157Z,14.30
2022-10-28T08:50:01.370Z,14.33
2022-10-28T08:55:08.140Z,14.35
2022-10-28T09:00:19.058Z,14.36
2022-10-28T09:05:23.580Z,14.37
2022-10-28T09:10:39.541Z,14.38
2022-10-28T09:15:47.659Z,14.44
2022-10-28T09:20:53.250Z,14.49
2022-10-28T09:26:11.351Z,14.53
2022-10-28T09:31:20.216Z,14.61
2022-10-28T09:36:28.161Z,14.66
2022-10-28T09:41:34.362Z,14.67
2022-10-28T09:46:39.263Z,14.68
2022-10-28T09:51:46.655Z,14.66
2022-10-28T09:56:52.104Z,14.68
2022-10-28T10:01:56.581Z,14.72
2022-10-28T10:07:03.961Z,14.70
2022-10-28T10:12:09.385Z,14.68
2022-10-28T10:17:16.115Z,14.67
2022-10-28T10:22:29.734Z,14.65
2022-10-28T10:27:34.272Z,14.67
2022-10-28T10:32:38.763Z,14.67
2022-10-28T10:37:44.593Z,14.66
2022-10-28T10:43:09.565Z,14.66
2022-10-28T10:48:15.023Z,14.67
2022-10-28T10:53:24.033Z,14.66
2022-10-28T10:58:29.618Z,14.63
2022-10-28T11:03:36.706Z,14.61
2022-10-28T11:08:41.719Z,14.61
2022-10-28T11:13:46.679Z,14.60
2022-10-28T11:18:51.957Z,14.58
2022-10-28T11:24:01.454Z,14.57
2022-10-28T11:29:09.692Z,14.56
2022-10-28T11:34:24.632Z,14.54
2022-10-28T11:39:33.128Z,14.55
2022-10-28T11:44:45.249Z,14.53
2022-10-28T11:50:08.920Z,14.52
2022-10-28T11:55:18.886Z,14.51
2022-10-28T12:00:28.140Z,14.50
2022-10-28T12:05:36.564Z,14.49
2022-10-28T12:10:46.131Z,14.48
2022-10-28T12:15:56.085Z,14.47
2022-10-28T12:21:05.299Z,14.46
2022-10-28T12:26:12.944Z,14.46
2022-10-28T12:31:21.334Z,14.44
2022-10-28T12:36:32.565Z,14.44
2022-10-28T12:41:46.447Z,14.44
2022-10-28T12:46:56.893Z,14.44
2022-10-28T12:52:05.484Z,14.43
2022-10-28T12:57:12.987Z,14.44
2022-10-28T13:02:20.819Z,14.44
2022-10-28T13:07:38.843Z,14.43
2022-10-28T13:12:57.277Z,14.42
2022-10-28T13:18:16.060Z,14.44
2022-10-28T13:23:28.782Z,14.47
2022-10-28T13:28:34.886Z,14.50
2022-10-28T13:33:39.927Z,14.50
2022-10-28T13:38:44.815Z,14.51
2022-10-28T13:43:58.565Z,14.53
2022-10-28T13:49:16.774Z,14.54
2022-10-28T13:54:28.522Z,14.57
2022-10-28T13:59:36.901Z,14.57
2022-10-28T14:04:42.107Z,14.57
2022-10-28T14:09:46.643Z,14.57
2022-10-28T14:15:04.861Z,14.59
2022-10-28T14:20:22.400Z,14.60
2022-10-28T14:25:44.760Z,14.63
2022-10-28T14:31:02.710Z,14.63
2022-10-28T14:36:19.276Z,14.66
2022-10-28T14:41:37.564Z,14.69
2022-10-28T14:46:47.970Z,14.70
2022-10-28T14:51:53.242Z,14.69
2022-10-28T14:56:57.627Z,14.73
2022-10-28T15:02:14.859Z,14.74
2022-10-28T15:07:20.260Z,14.77
2022-10-28T15:12:25.828Z,14.79
2022-10-28T15:17:31.211Z,14.80
2022-10-28T15:22:35.512Z,14.81
2022-10-28T15:27:40.760Z,14.82
2022-10-28T15:32:44.587Z,14.86
2022-10-28T15:37:48.692Z,15.00
2022-10-28T15:42:54.394Z,15.09
2022-10-28T15:47:59.117Z,15.08
2022-10-28T15:53:22.518Z,15.11
2022-10-28T15:58:33.389Z,15.16
2022-10-28T16:03:44.838Z,15.21
2022-10-28T16:08:49.507Z,15.26
2022-10-28T16:13:53.867Z,15.30
2022-10-28T16:19:02.397Z,15.35
2022-10-28T16:24:07.437Z,15.37
2022-10-28T16:29:11.578Z,15.40
2022-10-28T16:34:16.657Z,15.41
2022-10-28T16:39:20.790Z,15.43
2022-10-28T16:44:26.728Z,15.45
2022-10-28T16:49:31.116Z,15.48
2022-10-28T16:54:35.296Z,15.53
2022-10-28T16:59:39.596Z,15.57
2022-10-28T17:04:43.658Z,15.59
2022-10-28T17:09:47.801Z,15.62
2022-10-28T17:14:52.556Z,15.65
2022-10-28T17:19:56.870Z,15.67
2022-10-28T17:25:01.208Z,15.69
2022-10-28T17:30:06.848Z,15.72
2022-10-28T17:35:11.426Z,15.74
2022-10-28T17:40:16.155Z,15.78
2022-10-28T17:45:22.052Z,15.80
2022-10-28T17:50:26.386Z,15.84
2022-10-28T17:55:30.767Z,15.88
2022-10-28T18:00:35.303Z,15.90
2022-10-28T18:05:39.577Z,15.91
2022-10-28T18:10:52.118Z,15.94
2022-10-28T18:15:56.758Z,15.98
2022-10-28T18:21:01.102Z,16.03
2022-10-28T18:26:06.118Z,16.04
2022-10-28T18:31:11.298Z,16.06
2022-10-28T18:36:16.277Z,16.07
2022-10-28T18:41:21.057Z,16.09
2022-10-28T18:46:25.840Z,16.11
2022-10-28T18:51:30.118Z,16.13
2022-10-28T18:56:35.093Z,16.16
2022-10-28T19:01:46.565Z,16.19
2022-10-28T19:06:51.579Z,16.24
2022-10-28T19:11:55.767Z,16.26
2022-10-28T19:17:00.112Z,16.26
2022-10-28T19:22:04.871Z,16.28
2022-10-28T19:27:09.011Z,16.29
2022-10-28T19:32:13.219Z,16.32
2022-10-28T19:37:17.344Z,16.35
2022-10-28T19:42:21.398Z,16.37
2022-10-28T19:47:25.698Z,16.41
2022-10-28T19:52:30.292Z,16.42
2022-10-28T19:57:34.601Z,16.46
2022-10-28T20:02:38.427Z,16.61
2022-10-28T20:07:42.827Z,17.14
2022-10-28T20:12:46.958Z,17.16
2022-10-28T20:17:51.302Z,17.46
2022-10-28T20:22:56.019Z,17.63
2022-10-28T20:28:00.280Z,17.39
2022-10-28T20:33:06.291Z,17.58
2022-10-28T20:38:10.290Z,17.77
2022-10-28T20:43:14.538Z,17.89
2022-10-28T20:48:18.848Z,17.98
2022-10-28T20:53:23.618Z,18.08
2022-10-28T20:58:28.828Z,18.26
2022-10-28T21:03:32.977Z,18.22
2022-10-28T21:08:37.207Z,18.31
2022-10-28T21:13:41.317Z,18.55
2022-10-28T21:18:45.382Z,18.58
2022-10-28T21:23:49.613Z,18.65
2022-10-28T21:28:53.827Z,18.75
2022-10-28T21:33:59.195Z,18.79
2022-10-28T21:39:05.358Z,18.90
2022-10-28T21:44:10.716Z,18.91
2022-10-28T21:49:14.947Z,18.98
2022-10-28T21:54:19.078Z,19.04
2022-10-28T21:59:23.199Z,18.87
2022-10-28T22:04:27.538Z,18.25
2022-10-28T22:09:34.886Z,18.83
2022-10-28T22:14:41.650Z,19.31
2022-10-28T22:19:46.271Z,19.51
2022-10-28T22:24:50.712Z,19.64
2022-10-28T22:29:55.055Z,19.74
2022-10-28T22:34:59.387Z,19.96
2022-10-28T22:40:03.720Z,19.37
2022-10-28T22:45:08.618Z,18.82
2022-10-28T22:50:12.907Z,18.89
2022-10-28T22:55:17.267Z,19.00
2022-10-28T23:00:21.899Z,19.00
2022-10-28T23:05:26.136Z,19.02
2022-10-28T23:10:30.640Z,19.02
2022-10-28T23:15:34.780Z,19.00
2022-10-28T23:20:39.016Z,18.84
2022-10-28T23:25:43.127Z,18.81
2022-10-28T23:30:46.818Z,18.83
2022-10-28T23:36:00.818Z,18.98
2022-10-28T23:41:06.041Z,19.00
2022-10-28T23:46:10.708Z,18.99
2022-10-28T23:51:14.946Z,19.06
2022-10-28T23:56:19.586Z,19.10
